createdAt,value
2023-03-10T00:04:19.465Z,25.17
2023-03-10T00:06:48.110Z,25.88
2023-03-10T00:09:15.650Z,26.08
2023-03-10T00:11:43.273Z,27.23
2023-03-10T00:15:12.021Z,25.75
2023-03-10T00:17:40.033Z,28.10
2023-03-10T00:20:11.853Z,27.13
2023-03-10T00:22:41.912Z,29.30
2023-03-10T00:26:05.228Z,27.50
2023-03-10T00:29:23.591Z,27.13
2023-03-10T00:31:51.215Z,25.80
2023-03-10T00:34:18.828Z,29.65
2023-03-10T00:36:46.393Z,28.23
2023-03-10T00:39:14.467Z,29.52
2023-03-10T00:42:22.881Z,25.77
2023-03-10T00:44:50.545Z,29.38
2023-03-10T00:47:56.266Z,26.98
2023-03-10T00:51:00.513Z,27.02
2023-03-10T00:54:34.230Z,29.15
2023-03-10T00:58:18.001Z,27.20
2023-03-10T01:01:51.131Z,30.67
2023-03-10T01:04:38.783Z,28.63
2023-03-10T01:07:06.412Z,28.85
2023-03-10T01:09:35.163Z,30.13
2023-03-10T01:12:58.863Z,30.55
2023-03-10T01:16:41.980Z,27.42
2023-03-10T01:19:09.880Z,30.55
2023-03-10T01:21:39.148Z,29.08
2023-03-10T01:28:46.000Z,30.42
2023-03-10T01:32:21.369Z,33.42
2023-03-10T01:35:18.802Z,29.40
2023-03-10T01:37:49.224Z,32.30
2023-03-10T01:40:18.855Z,34.95
2023-03-10T01:43:49.725Z,29.02
2023-03-10T01:46:43.820Z,31.33
2023-03-10T01:49:58.596Z,28.45
2023-03-10T01:52:29.205Z,33.25
2023-03-10T01:59:34.761Z,30.45
2023-03-10T02:02:03.594Z,29.10
2023-03-10T02:04:43.110Z,28.05
2023-03-10T02:07:13.163Z,28.42
2023-03-10T02:10:10.428Z,27.42
2023-03-10T02:12:38.116Z,30.77
2023-03-10T02:15:07.018Z,24.65
2023-03-10T02:18:13.887Z,26.48
2023-03-10T02:23:44.986Z,29.70
2023-03-10T02:26:57.701Z,29.13
2023-03-10T02:29:38.444Z,25.92
2023-03-10T02:34:11.759Z,30.35
2023-03-10T02:37:01.194Z,24.65
2023-03-10T02:39:30.404Z,27.38
2023-03-10T02:42:36.326Z,27.88
2023-03-10T02:49:13.701Z,23.20
2023-03-10T02:51:46.731Z,22.02
2023-03-10T02:54:17.675Z,21.23
2023-03-10T02:56:45.674Z,24.48
2023-03-10T03:04:25.023Z,23.77
2023-03-10T03:06:52.892Z,22.33
2023-03-10T03:17:07.899Z,22.08
2023-03-10T03:22:23.834Z,23.42
2023-03-10T03:26:17.080Z,22.95
2023-03-10T03:28:45.776Z,24.45
2023-03-10T03:31:19.719Z,21.23
2023-03-10T03:34:38.369Z,21.65
2023-03-10T03:38:01.310Z,21.52
2023-03-10T03:40:36.338Z,22.67
2023-03-10T03:43:05.801Z,27.10
2023-03-10T03:45:36.176Z,27.95
2023-03-10T03:48:04.249Z,27.73
2023-03-10T03:50:34.514Z,33.22
2023-03-10T03:56:41.717Z,28.92
2023-03-10T03:59:11.693Z,31.35
2023-03-10T04:02:11.319Z,31.55
2023-03-10T04:04:39.533Z,35.72
2023-03-10T04:11:50.621Z,34.63
2023-03-10T04:14:29.622Z,32.28
2023-03-10T04:18:10.441Z,32.63
2023-03-10T04:20:39.121Z,34.08
2023-03-10T04:24:27.296Z,35.72
2023-03-10T04:27:09.534Z,36.17
2023-03-10T04:29:53.780Z,38.58
2023-03-10T04:33:30.278Z,35.13
2023-03-10T04:36:03.088Z,33.60
2023-03-10T04:38:30.876Z,35.08
2023-03-10T04:40:58.793Z,32.28
2023-03-10T04:44:29.846Z,33.63
2023-03-10T04:47:00.025Z,31.05
2023-03-10T04:49:28.200Z,32.90
2023-03-10T04:51:56.107Z,35.97
2023-03-10T04:54:24.341Z,35.22
2023-03-10T04:57:43.674Z,36.20
2023-03-10T05:00:13.659Z,35.35
2023-03-10T05:03:15.341Z,33.28
2023-03-10T05:05:44.021Z,34.25
2023-03-10T05:08:15.374Z,35.45
2023-03-10T05:10:44.586Z,33.50
2023-03-10T05:13:49.869Z,29.25
2023-03-10T05:16:26.793Z,33.90
2023-03-10T05:19:01.165Z,34.22
2023-03-10T05:21:42.673Z,32.03
2023-03-10T05:24:15.321Z,34.00
2023-03-10T05:26:45.415Z,31.67
2023-03-10T05:29:17.098Z,30.30
2023-03-10T05:31:52.831Z,33.67
2023-03-10T05:34:27.259Z,32.53
2023-03-10T05:37:06.288Z,34.58
2023-03-10T05:39:39.790Z,31.42
2023-03-10T05:42:33.988Z,34.38
2023-03-10T05:45:01.736Z,32.83
2023-03-10T05:47:29.572Z,33.22
2023-03-10T05:49:57.202Z,36.45
2023-03-10T05:52:25.652Z,32.95
2023-03-10T05:54:53.370Z,32.83
2023-03-10T05:57:21.062Z,30.65
2023-03-10T05:59:48.590Z,35.85
2023-03-10T06:02:16.265Z,33.53
2023-03-10T06:04:46.291Z,29.67
2023-03-10T06:07:13.926Z,33.10
2023-03-10T06:09:41.555Z,31.13
2023-03-10T06:12:09.386Z,33.50
2023-03-10T06:14:38.553Z,29.60
2023-03-10T06:17:06.119Z,35.55
2023-03-10T06:19:33.653Z,32.10
2023-03-10T06:22:01.206Z,34.97
2023-03-10T06:24:29.373Z,36.65
2023-03-10T06:26:57.077Z,30.70
2023-03-10T06:29:24.559Z,37.67
2023-03-10T06:31:52.261Z,41.28
2023-03-10T06:34:19.719Z,32.35
2023-03-10T06:36:47.175Z,31.70
2023-03-10T06:39:14.646Z,33.70
2023-03-10T06:41:42.128Z,38.08
2023-03-10T06:44:09.649Z,30.75
2023-03-10T06:46:37.223Z,30.20
2023-03-10T06:49:10.457Z,30.27
2023-03-10T06:51:40.693Z,27.65
2023-03-10T06:54:19.301Z,27.98
2023-03-10T06:57:45.451Z,29.20
2023-03-10T07:00:35.878Z,31.15
2023-03-10T07:03:06.838Z,31.35
2023-03-10T07:05:34.413Z,30.00
2023-03-10T07:08:02.030Z,30.60
2023-03-10T07:10:29.612Z,32.60
2023-03-10T07:12:59.191Z,30.25
2023-03-10T07:15:28.979Z,33.15
2023-03-10T07:17:56.639Z,31.05
2023-03-10T07:20:24.798Z,32.22
2023-03-10T07:22:52.575Z,25.40
2023-03-10T07:25:20.175Z,28.00
2023-03-10T07:27:49.048Z,32.13
2023-03-10T07:30:17.086Z,27.05
2023-03-10T07:32:44.797Z,27.38
2023-03-10T07:35:12.417Z,28.40
2023-03-10T07:37:40.853Z,27.70
2023-03-10T07:40:09.486Z,28.38
2023-03-10T07:42:37.036Z,26.98
2023-03-10T07:45:08.097Z,30.27
2023-03-10T07:47:35.774Z,22.80
2023-03-10T07:50:06.053Z,24.02
2023-03-10T07:52:33.689Z,29.67
2023-03-10T07:55:01.278Z,23.50
2023-03-10T07:57:37.186Z,19.10
2023-03-10T08:00:06.379Z,22.13
2023-03-10T08:02:46.868Z,18.80
2023-03-10T08:05:15.181Z,18.92
2023-03-10T08:07:44.999Z,19.88
2023-03-10T08:10:13.131Z,18.98
2023-03-10T08:12:43.802Z,19.95
2023-03-10T08:15:11.722Z,19.30
2023-03-10T08:17:39.312Z,18.90
2023-03-10T08:20:07.433Z,21.83
2023-03-10T08:22:35.448Z,18.90
2023-03-10T08:25:05.613Z,20.52
2023-03-10T08:27:36.541Z,25.80
2023-03-10T08:30:04.808Z,23.75
2023-03-10T08:32:34.207Z,22.88
2023-03-10T08:35:01.923Z,27.75
2023-03-10T08:37:29.406Z,19.90
2023-03-10T08:39:58.969Z,21.83
2023-03-10T08:42:26.865Z,21.92
2023-03-10T08:44:57.478Z,20.23
2023-03-10T08:47:28.093Z,20.35
2023-03-10T08:49:56.797Z,20.67
2023-03-10T08:52:24.672Z,22.73
2023-03-10T08:54:52.170Z,16.33
2023-03-10T08:57:19.672Z,19.30
2023-03-10T08:59:47.192Z,12.88
2023-03-10T09:02:15.423Z,13.57
2023-03-10T09:04:43.458Z,13.00
2023-03-10T09:07:10.949Z,13.02
2023-03-10T09:09:38.477Z,15.30
2023-03-10T09:12:08.976Z,13.05
2023-03-10T09:14:37.664Z,11.45
2023-03-10T09:17:06.250Z,11.85
2023-03-10T09:19:33.756Z,11.38
2023-03-10T09:22:01.533Z,11.88
2023-03-10T09:24:29.080Z,14.20
2023-03-10T09:26:56.591Z,12.77
2023-03-10T09:29:41.749Z,13.93
2023-03-10T09:32:10.755Z,16.08
2023-03-10T09:34:38.314Z,13.35
2023-03-10T09:37:08.373Z,15.70
2023-03-10T09:39:35.976Z,13.45
2023-03-10T09:42:25.524Z,10.93
2023-03-10T09:45:12.777Z,13.85
2023-03-10T09:47:46.133Z,15.75
2023-03-10T09:50:28.284Z,15.55
2023-03-10T09:53:19.265Z,16.08
2023-03-10T09:55:49.937Z,13.52
2023-03-10T09:58:31.627Z,14.93
2023-03-10T10:01:00.501Z,13.93
2023-03-10T10:03:51.421Z,14.65
2023-03-10T10:06:28.545Z,14.38
2023-03-10T10:09:05.107Z,13.55
2023-03-10T10:11:36.911Z,14.88
2023-03-10T10:14:29.820Z,12.93
2023-03-10T10:17:16.262Z,14.27
2023-03-10T10:19:47.989Z,11.82
2023-03-10T10:22:30.867Z,14.80
2023-03-10T10:25:16.251Z,18.42
2023-03-10T10:27:46.175Z,12.73
2023-03-10T10:30:30.018Z,13.98
2023-03-10T10:33:07.817Z,14.80
2023-03-10T10:35:41.067Z,12.80
2023-03-10T10:38:11.412Z,13.38
2023-03-10T10:41:05.817Z,14.15
2023-03-10T10:43:45.599Z,12.05
2023-03-10T10:46:15.510Z,11.75
2023-03-10T10:48:46.320Z,9.65
2023-03-10T10:51:29.120Z,12.32
2023-03-10T10:54:02.656Z,12.32
2023-03-10T10:56:31.195Z,14.55
2023-03-10T10:59:07.572Z,11.40
2023-03-10T11:01:56.331Z,12.23
2023-03-10T11:04:25.938Z,11.13
2023-03-10T11:07:07.725Z,14.68
2023-03-10T11:09:43.107Z,11.90
2023-03-10T11:12:22.183Z,11.93
2023-03-10T11:14:58.696Z,9.00
2023-03-10T11:17:48.709Z,10.13
2023-03-10T11:20:45.577Z,9.63
2023-03-10T11:23:52.610Z,8.75
2023-03-10T11:26:53.982Z,10.15
2023-03-10T11:29:41.700Z,10.43
2023-03-10T11:32:30.871Z,11.35
2023-03-10T11:35:10.935Z,10.77
2023-03-10T11:37:55.511Z,10.23
2023-03-10T11:40:39.716Z,10.32
2023-03-10T11:43:21.039Z,13.48
2023-03-10T11:45:54.765Z,12.75
2023-03-10T11:48:53.616Z,11.30
2023-03-10T11:51:30.165Z,10.02
2023-03-10T11:56:50.791Z,8.90
2023-03-10T11:59:28.291Z,10.65
2023-03-10T12:02:16.072Z,10.15
2023-03-10T12:05:10.067Z,12.60
2023-03-10T12:07:44.392Z,10.95
2023-03-10T12:10:11.936Z,12.23
2023-03-10T12:12:44.917Z,12.43
2023-03-10T12:15:47.329Z,12.38
2023-03-10T12:18:15.028Z,10.85
2023-03-10T12:20:43.066Z,15.32
2023-03-10T12:23:10.854Z,11.05
2023-03-10T12:25:38.660Z,13.27
2023-03-10T12:28:27.936Z,14.57
2023-03-10T12:31:20.143Z,13.27
2023-03-10T12:33:50.539Z,14.02
2023-03-10T12:36:31.990Z,14.10
2023-03-10T12:39:20.612Z,14.77
2023-03-10T12:42:01.846Z,14.90
2023-03-10T12:44:50.239Z,15.63
2023-03-10T12:47:26.494Z,15.00
2023-03-10T12:50:53.274Z,14.38
2023-03-10T12:53:31.455Z,14.45
2023-03-10T12:56:12.181Z,12.63
2023-03-10T12:59:02.422Z,16.90
2023-03-10T13:01:46.233Z,15.93
2023-03-10T13:04:22.876Z,17.25
2023-03-10T13:07:03.634Z,14.38
2023-03-10T13:09:39.165Z,12.98
2023-03-10T13:12:55.744Z,13.38
2023-03-10T13:15:32.522Z,15.80
2023-03-10T13:18:16.861Z,12.43
2023-03-10T13:20:44.616Z,11.13
2023-03-10T13:23:35.767Z,13.52
2023-03-10T13:26:09.426Z,13.77
2023-03-10T13:28:39.329Z,13.95
2023-03-10T13:31:21.980Z,16.25
2023-03-10T13:33:53.876Z,14.43
2023-03-10T13:36:34.563Z,14.50
2023-03-10T13:39:17.529Z,13.68
2023-03-10T13:41:49.274Z,12.10
2023-03-10T13:44:38.866Z,16.77
2023-03-10T13:47:26.767Z,11.05
2023-03-10T13:49:58.626Z,13.77
2023-03-10T13:52:29.308Z,16.67
2023-03-10T13:55:14.713Z,19.27
2023-03-10T13:57:45.461Z,15.57
2023-03-10T14:00:20.561Z,17.13
2023-03-10T14:02:50.454Z,11.10
2023-03-10T14:05:37.987Z,13.65
2023-03-10T14:08:06.466Z,9.23
2023-03-10T14:10:34.134Z,11.90
2023-03-10T14:13:01.645Z,16.88
2023-03-10T14:15:38.259Z,13.73
2023-03-10T14:18:08.625Z,10.82
2023-03-10T14:20:43.250Z,9.77
2023-03-10T14:23:19.712Z,10.90
2023-03-10T14:25:49.260Z,10.23
2023-03-10T14:28:28.922Z,10.48
2023-03-10T14:30:56.807Z,11.27
2023-03-10T14:33:42.352Z,11.68
2023-03-10T14:36:14.584Z,12.30
2023-03-10T14:38:52.659Z,9.23
2023-03-10T14:41:24.239Z,9.70
2023-03-10T14:43:52.238Z,13.68
2023-03-10T14:46:20.058Z,11.02
2023-03-10T14:48:47.614Z,11.13
2023-03-10T14:51:34.697Z,12.57
2023-03-10T14:54:04.346Z,11.63
2023-03-10T14:56:33.019Z,15.93
2023-03-10T14:59:02.560Z,13.85
2023-03-10T15:01:30.716Z,13.88
2023-03-10T15:03:58.337Z,12.45
2023-03-10T15:06:25.868Z,15.88
2023-03-10T15:08:53.302Z,11.38
2023-03-10T15:11:34.393Z,15.77
2023-03-10T15:14:18.899Z,18.17
2023-03-10T15:16:46.581Z,12.52
2023-03-10T15:19:25.830Z,15.38
2023-03-10T15:21:54.050Z,13.95
2023-03-10T15:24:21.535Z,13.80
2023-03-10T15:26:49.155Z,17.92
2023-03-10T15:29:17.782Z,17.35
2023-03-10T15:31:45.890Z,17.95
2023-03-10T15:34:15.912Z,15.38
2023-03-10T15:36:43.646Z,17.10
2023-03-10T15:39:14.224Z,20.40
2023-03-10T15:44:16.183Z,14.63
2023-03-10T15:46:45.873Z,14.95
2023-03-10T15:49:13.644Z,16.10
2023-03-10T15:51:41.229Z,14.38
2023-03-10T15:54:12.468Z,15.25
2023-03-10T15:56:40.023Z,18.90
2023-03-10T15:59:08.313Z,19.85
2023-03-10T16:01:35.987Z,17.65
2023-03-10T16:04:05.942Z,17.67
2023-03-10T16:06:34.412Z,21.30
2023-03-10T16:09:02.005Z,19.35
2023-03-10T16:11:29.574Z,21.35
2023-03-10T16:13:57.129Z,21.95
2023-03-10T16:16:26.490Z,20.83
2023-03-10T16:18:54.203Z,21.25
2023-03-10T16:21:22.120Z,20.75
2023-03-10T16:23:50.041Z,24.08
2023-03-10T16:26:22.484Z,22.38
2023-03-10T16:28:53.086Z,21.58
2023-03-10T16:31:24.654Z,21.35
2023-03-10T16:33:53.227Z,22.05
2023-03-10T16:36:25.815Z,23.35
2023-03-10T16:38:56.482Z,21.40
2023-03-10T16:41:29.804Z,20.25
2023-03-10T16:44:05.696Z,25.10
2023-03-10T16:46:36.068Z,25.25
2023-03-10T16:49:04.057Z,27.38
2023-03-10T16:51:51.139Z,22.20
2023-03-10T16:54:22.052Z,25.70
2023-03-10T16:57:01.468Z,22.15
2023-03-10T16:59:30.425Z,24.02
2023-03-10T17:02:16.747Z,26.80
2023-03-10T17:04:49.307Z,29.33
2023-03-10T17:07:19.055Z,27.52
2023-03-10T17:09:51.462Z,28.70
2023-03-10T17:12:19.013Z,25.08
2023-03-10T17:14:46.771Z,28.85
2023-03-10T17:17:14.372Z,29.65
2023-03-10T17:19:41.915Z,28.67
2023-03-10T17:22:09.426Z,30.95
2023-03-10T17:24:37.064Z,29.42
2023-03-10T17:27:06.634Z,34.47
2023-03-10T17:29:34.204Z,31.15
2023-03-10T17:32:01.948Z,30.63
2023-03-10T17:34:30.734Z,31.80
2023-03-10T17:37:09.808Z,34.78
2023-03-10T17:39:37.366Z,34.17
2023-03-10T17:42:06.782Z,29.58
2023-03-10T17:48:52.929Z,34.05
2023-03-10T17:59:54.741Z,34.95
2023-03-10T18:03:48.069Z,35.35
2023-03-10T18:10:11.920Z,31.15
2023-03-10T18:13:24.460Z,37.60
2023-03-10T18:16:31.480Z,39.88
2023-03-10T18:19:19.183Z,34.55
2023-03-10T18:22:06.492Z,36.38
2023-03-10T18:24:44.019Z,33.00
2023-03-10T18:27:34.036Z,32.50
2023-03-10T18:30:30.169Z,33.60
2023-03-10T18:32:58.158Z,34.08
2023-03-10T18:35:28.768Z,33.78
2023-03-10T18:38:04.054Z,33.88
2023-03-10T18:40:31.881Z,30.17
2023-03-10T18:43:40.192Z,32.42
2023-03-10T18:46:33.032Z,30.23
2023-03-10T18:49:00.805Z,31.77
2023-03-10T18:51:36.527Z,31.50
2023-03-10T18:54:07.067Z,32.85
2023-03-10T18:56:56.682Z,28.10
2023-03-10T18:59:32.032Z,28.27
2023-03-10T19:01:59.902Z,31.42
2023-03-10T19:04:39.867Z,33.83
2023-03-10T19:07:14.842Z,29.65
2023-03-10T19:09:47.575Z,27.45
2023-03-10T19:12:21.530Z,34.67
2023-03-10T19:14:56.078Z,31.85
2023-03-10T19:17:26.494Z,26.35
2023-03-10T19:19:54.102Z,27.75
2023-03-10T19:22:21.629Z,29.67
2023-03-10T19:24:49.375Z,28.52
2023-03-10T19:27:17.021Z,28.40
2023-03-10T19:29:44.748Z,29.80
2023-03-10T19:32:12.292Z,25.92
2023-03-10T19:34:39.823Z,30.63
2023-03-10T19:37:07.403Z,27.05
2023-03-10T19:39:37.440Z,25.70
2023-03-10T19:42:05.296Z,23.10
2023-03-10T19:44:35.574Z,22.25
2023-03-10T19:47:03.268Z,20.35
2023-03-10T19:49:34.270Z,19.02
2023-03-10T19:52:05.007Z,17.35
2023-03-10T19:54:32.583Z,18.77
2023-03-10T19:57:00.177Z,22.30
2023-03-10T19:59:27.760Z,20.10
2023-03-10T20:01:55.466Z,19.50
2023-03-10T20:04:22.984Z,19.48
2023-03-10T20:06:53.756Z,20.60
2023-03-10T20:09:24.711Z,21.08
2023-03-10T20:11:53.038Z,18.38
2023-03-10T20:14:20.531Z,15.73
2023-03-10T20:16:54.274Z,15.48
2023-03-10T20:19:46.064Z,19.27
2023-03-10T20:22:15.261Z,15.82
2023-03-10T20:24:42.901Z,20.58
2023-03-10T20:30:03.852Z,19.85
2023-03-10T20:32:33.996Z,19.15
2023-03-10T20:35:29.709Z,16.90
2023-03-10T20:38:06.408Z,16.30
2023-03-10T20:40:44.533Z,17.60
2023-03-10T20:43:14.835Z,17.75
2023-03-10T20:45:44.563Z,19.58
2023-03-10T20:48:12.028Z,16.08
2023-03-10T20:50:41.773Z,17.88
2023-03-10T20:53:10.455Z,16.42
2023-03-10T20:55:42.072Z,16.90
2023-03-10T20:58:09.648Z,15.57
2023-03-10T21:00:37.216Z,15.43
2023-03-10T21:03:05.294Z,13.32
2023-03-10T21:05:33.022Z,15.63
2023-03-10T21:08:00.586Z,16.10
2023-03-10T21:10:28.197Z,15.55
2023-03-10T21:12:55.800Z,10.77
2023-03-10T21:15:24.336Z,14.43
2023-03-10T21:17:51.952Z,11.07
2023-03-10T21:20:22.100Z,12.27
2023-03-10T21:22:53.108Z,10.18
2023-03-10T21:25:39.025Z,8.73
2023-03-10T21:28:06.730Z,10.00
2023-03-10T21:30:35.390Z,9.32
2023-03-10T21:33:03.204Z,11.05
2023-03-10T21:35:36.800Z,9.88
2023-03-10T21:38:04.611Z,5.90
2023-03-10T21:40:32.298Z,6.85
2023-03-10T21:43:02.567Z,6.53
2023-03-10T21:45:30.351Z,5.32
2023-03-10T21:47:57.786Z,5.85
2023-03-10T21:50:25.349Z,3.92
2023-03-10T21:52:53.705Z,7.22
2023-03-10T21:55:23.852Z,5.40
2023-03-10T21:57:52.040Z,5.60
2023-03-10T22:00:23.309Z,5.50
2023-03-10T22:02:52.819Z,9.50
2023-03-10T22:05:21.043Z,6.50
2023-03-10T22:07:48.724Z,5.43
2023-03-10T22:10:17.364Z,4.10
2023-03-10T22:12:44.988Z,5.40
2023-03-10T22:15:21.667Z,2.28
2023-03-10T22:17:49.514Z,7.13
2023-03-10T22:20:21.341Z,5.57
2023-03-10T22:22:49.008Z,4.68
2023-03-10T22:25:17.562Z,6.65
2023-03-10T22:27:52.161Z,5.03
2023-03-10T22:30:21.419Z,4.60
2023-03-10T22:32:49.465Z,4.80
2023-03-10T22:35:18.024Z,6.53
2023-03-10T22:37:45.729Z,2.95
2023-03-10T22:40:16.331Z,4.38
2023-03-10T22:42:45.037Z,5.10
2023-03-10T22:45:22.287Z,9.50
2023-03-10T22:47:52.379Z,5.95
2023-03-10T22:50:26.923Z,4.53
2023-03-10T22:52:54.370Z,9.53
2023-03-10T22:55:24.907Z,6.43
2023-03-10T22:57:53.778Z,5.15
2023-03-10T23:00:22.186Z,3.63
2023-03-10T23:02:50.664Z,7.85
2023-03-10T23:05:21.384Z,8.30
2023-03-10T23:07:49.405Z,4.82
2023-03-10T23:10:22.149Z,4.30
2023-03-10T23:12:50.367Z,8.00
2023-03-10T23:15:25.777Z,2.42
2023-03-10T23:17:55.134Z,5.55
2023-03-10T23:20:28.320Z,2.03
2023-03-10T23:22:57.800Z,1.92
2023-03-10T23:25:31.540Z,2.40
2023-03-10T23:27:59.899Z,3.92
2023-03-10T23:30:28.653Z,7.47
2023-03-10T23:32:56.748Z,4.35
2023-03-10T23:35:30.186Z,2.60
2023-03-10T23:37:58.387Z,3.42
2023-03-10T23:40:27.701Z,4.40
2023-03-10T23:42:57.003Z,4.53
2023-03-10T23:45:27.074Z,3.55
2023-03-10T23:47:55.671Z,5.32
2023-03-10T23:50:29.272Z,4.82
2023-03-10T23:52:57.590Z,3.67
2023-03-10T23:55:30.180Z,4.20
2023-03-10T23:57:58.276Z,3.05
